| time (UTC) | temp C | wind direction | speed KPH | gust KPH | rain 1hr cm | rain 24hr cm | rain mn cm | humidity % | barometer mb |
| 20260902190034 | 20 | 0 | 0.0 | 0.0 | 0.00 | 0.43 | 0.03 | 97 | 1019.4 |
| 20260902184534 | 20 | 0 | 0.0 | 0.0 | 0.00 | 0.43 | 0.03 | 96 | 1019.5 |
| 20260902183034 | 20 | 0 | 0.0 | 0.0 | 0.00 | 0.43 | 0.03 | 97 | 1019.6 |
| 20260902181536 | 20 | 0 | 0.0 | 0.0 | 0.00 | 0.43 | 0.03 | 97 | 1019.8 |
| 20260902180036 | 20 | 0 | 0.0 | 0.0 | 0.00 | 0.43 | 0.03 | 96 | 1019.8 |
| 20260902174536 | 20 | 88 | 0.0 | 3.2 | 0.00 | 0.43 | 0.03 | 96 | 1019.6 |
| 20260902173035 | 20 | 0 | 0.0 | 9.7 | 0.00 | 0.43 | 0.03 | 96 | 1019.5 |
| 20260902171538 | 20 | 0 | 0.0 | 6.4 | 0.00 | 0.43 | 0.03 | 96 | 1019.9 |
| 20260902170031 | 20 | 0 | 0.0 | 6.4 | 0.00 | 0.43 | 0.03 | 96 | 1020.4 |
| 20260902164536 | 20 | 0 | 0.0 | 0.0 | 0.00 | 0.43 | 0.03 | 96 | 1020.4 |
| 20260902163036 | 20 | 0 | 0.0 | 4.8 | 0.00 | 0.43 | 0.03 | 96 | 1020.4 |
| 20260902161532 | 20 | 0 | 1.6 | 8.0 | 0.00 | 0.43 | 0.03 | 96 | 1020.2 |
| 20260902160032 | 20 | 86 | 1.6 | 11.3 | 0.00 | 0.43 | 0.03 | 96 | 1019.9 |
| 20260902154532 | 20 | 111 | 1.6 | 12.9 | 0.00 | 0.43 | 0.03 | 97 | 1019.9 |
| 20260902153044 | 20 | 128 | 1.6 | 12.9 | 0.00 | 0.43 | 0.03 | 96 | 1020.1 |
| 20260902151534 | 20 | 110 | 3.2 | 11.3 | 0.00 | 0.43 | 0.03 | 96 | 1020.1 |
| 20260902150033 | 20 | 0 | 0.0 | 4.8 | 0.00 | 0.43 | 0.03 | 97 | 1020.1 |
| 20260902144532 | 20 | 0 | 1.6 | 8.0 | 0.00 | 0.43 | 0.03 | 97 | 1020.3 |
| 20260902143035 | 20 | 0 | 0.0 | 9.7 | 0.00 | 0.43 | 0.03 | 97 | 1020.2 |
| 20260902141531 | 20 | 0 | 1.6 | 9.7 | 0.00 | 0.43 | 0.03 | 97 | 1019.7 |
| 20260902140031 | 20 | 90 | 1.6 | 11.3 | 0.00 | 0.43 | 0.03 | 97 | 1019.9 |
| 20260902134541 | 20 | 58 | 1.6 | 12.9 | 0.00 | 0.43 | 0.03 | 97 | 1019.9 |
| 20260902133035 | 19 | 82 | 0.0 | 6.4 | 0.00 | 0.43 | 0.03 | 97 | 1019.9 |
| 20260902131540 | 19 | 0 | 1.6 | 9.7 | 0.00 | 0.43 | 0.03 | 97 | 1019.5 |
| 20260902130038 | 19 | 90 | 1.6 | 8.0 | 0.00 | 0.43 | 0.03 | 97 | 1019.5 |
| 20260902124531 | 19 | 0 | 0.0 | 8.0 | 0.00 | 0.43 | 0.03 | 97 | 1019.6 |
| 20260902123034 | 19 | 0 | 0.0 | 12.9 | 0.00 | 0.43 | 0.03 | 97 | 1019.5 |
| 20260902121534 | 19 | 0 | 0.0 | 3.2 | 0.00 | 0.43 | 0.03 | 97 | 1019.3 |
| 20260902120034 | 19 | 0 | 0.0 | 8.0 | 0.00 | 0.43 | 0.03 | 97 | 1019.3 |
| 20260902114536 | 19 | 0 | 0.0 | 4.8 | 0.00 | 0.43 | 0.03 | 97 | 1019.2 |
| 20260902113036 | 19 | 0 | 0.0 | 8.0 | 0.00 | 0.43 | 0.03 | 97 | 1019.2 |
| 20260902111535 | 19 | 76 | 0.0 | 8.0 | 0.03 | 0.43 | 0.03 | 97 | 1019.2 |
| 20260902110040 | 19 | 0 | 0.0 | 4.8 | 0.03 | 0.43 | 0.03 | 97 | 1019.2 |
| 20260902104531 | 19 | 0 | 0.0 | 6.4 | 0.03 | 0.43 | 0.03 | 97 | 1018.9 |
| 20260902103032 | 19 | 66 | 1.6 | 11.3 | 0.03 | 0.43 | 0.03 | 97 | 1018.7 |
| 20260902101536 | 19 | 83 | 0.0 | 8.0 | 0.00 | 0.41 | 0.00 | 97 | 1018.9 |
| 20260902100033 | 20 | 96 | 0.0 | 6.4 | 0.00 | 0.41 | 0.00 | 97 | 1018.8 |
| 20260902094533 | 20 | 0 | 0.0 | 8.0 | 0.00 | 0.43 | 0.00 | 97 | 1018.7 |
| 20260902093037 | 20 | 80 | 3.2 | 11.3 | 0.00 | 0.43 | 0.00 | 97 | 1018.6 |
| 20260902091532 | 20 | 0 | 0.0 | 4.8 | 0.00 | 0.43 | 0.00 | 97 | 1018.5 |
| 20260902090031 | 20 | 90 | 1.6 | 11.3 | 0.00 | 0.43 | 0.00 | 97 | 1018.4 |
| 20260902084531 | 20 | 86 | 0.0 | 9.7 | 0.00 | 0.43 | 0.00 | 97 | 1018.2 |
| 20260902083031 | 20 | 117 | 1.6 | 12.9 | 0.00 | 0.43 | 0.00 | 97 | 1017.9 |
| 20260902081530 | 20 | 0 | 0.0 | 11.3 | 0.00 | 0.43 | 0.00 | 97 | 1017.9 |
| 20260902080034 | 20 | 0 | 1.6 | 11.3 | 0.00 | 0.43 | 0.00 | 97 | 1017.8 |
| 20260902074536 | 20 | 74 | 3.2 | 17.7 | 0.00 | 0.43 | 0.00 | 97 | 1017.6 |
| 20260902073032 | 20 | 0 | 0.0 | 9.7 | 0.00 | 0.43 | 0.00 | 97 | 1017.6 |
| 20260902071534 | 20 | 0 | 1.6 | 11.3 | 0.00 | 0.43 | 0.00 | 97 | 1017.4 |
| 20260902070033 | 20 | 0 | 0.0 | 6.4 | 0.00 | 0.43 | 0.00 | 97 | 1017.6 |
| 20260902064537 | 21 | 0 | 0.0 | 6.4 | 0.00 | 0.43 | 0.00 | 97 | 1017.4 |
| 20260902063035 | 21 | 0 | 0.0 | 6.4 | 0.00 | 0.43 | 0.00 | 97 | 1017.4 |
| 20260902061551 | 21 | 86 | 0.0 | 11.3 | 0.00 | 0.43 | 0.00 | 97 | 1017.2 |
| 20260902060040 | 21 | 0 | 0.0 | 12.9 | 0.00 | 0.43 | 0.00 | 97 | 1017.2 |
| 20260902054533 | 21 | 0 | 0.0 | 6.4 | 0.00 | 0.43 | 0.00 | 97 | 1017.3 |
| 20260902053032 | 21 | 74 | 0.0 | 11.3 | 0.00 | 0.43 | 0.00 | 97 | 1017.1 |
| 20260902051532 | 21 | 82 | 0.0 | 9.7 | 0.00 | 0.43 | 0.00 | 97 | 1017.3 |
| 20260902050034 | 21 | 88 | 3.2 | 14.5 | 0.00 | 0.43 | 0.00 | 97 | 1017.5 |
| 20260902044537 | 21 | 0 | 0.0 | 0.0 | 0.00 | 0.43 | 0.00 | 97 | 1017.6 |
| 20260902043032 | 22 | 0 | 0.0 | 0.0 | 0.00 | 0.43 | 0.00 | 97 | 1017.4 |
| 20260902041537 | 22 | 0 | 0.0 | 0.0 | 0.00 | 0.43 | 0.00 | 97 | 1017.5 |
| 20260902040038 | 22 | 0 | 0.0 | 0.0 | 0.00 | 0.43 | 0.00 | 97 | 1017.3 |
| 20260902034537 | 22 | 0 | 0.0 | 0.0 | 0.00 | 0.43 | 0.43 | 97 | 1017.2 |
| 20260902033032 | 22 | 0 | 0.0 | 0.0 | 0.00 | 0.43 | 0.43 | 97 | 1016.7 |
| 20260902031542 | 22 | 0 | 0.0 | 0.0 | 0.00 | 0.43 | 0.43 | 97 | 1016.6 |
| 20260902030033 | 22 | 0 | 0.0 | 0.0 | 0.00 | 0.43 | 0.43 | 96 | 1016.6 |
| 20260902024538 | 22 | 0 | 0.0 | 6.4 | 0.00 | 0.43 | 0.43 | 97 | 1016.4 |
| 20260902023031 | 22 | 102 | 1.6 | 12.9 | 0.00 | 0.43 | 0.43 | 97 | 1016.2 |
| 20260902021533 | 22 | 0 | 0.0 | 3.2 | 0.00 | 0.43 | 0.43 | 97 | 1016.0 |
| 20260902020037 | 22 | 0 | 0.0 | 0.0 | 0.00 | 0.43 | 0.43 | 97 | 1016.0 |
| 20260902014534 | 22 | 0 | 0.0 | 0.0 | 0.00 | 0.43 | 0.43 | 96 | 1015.4 |
| 20260902013032 | 22 | 0 | 0.0 | 1.6 | 0.05 | 0.43 | 0.43 | 95 | 1014.7 |
| 20260902011534 | 22 | 0 | 0.0 | 6.4 | 0.41 | 0.43 | 0.43 | 94 | 1014.5 |
| 20260902010035 | 22 | 0 | 0.0 | 6.4 | 0.41 | 0.43 | 0.43 | 93 | 1014.3 |
| 20260902004533 | 22 | 0 | 0.0 | 4.8 | 0.41 | 0.43 | 0.43 | 91 | 1014.1 |
| 20260902003038 | 24 | 242 | 0.0 | 20.9 | 0.33 | 0.36 | 0.36 | 89 | 1013.7 |
| 20260902001540 | 25 | 0 | 0.0 | 0.0 | 0.00 | 0.03 | 0.03 | 93 | 1013.5 |
| 20260902000037 | 25 | 0 | 0.0 | 0.0 | 0.00 | 0.03 | 0.03 | 92 | 1013.1 |
| 20260901234533 | 25 | 0 | 0.0 | 0.0 | 0.00 | 0.03 | 0.03 | 91 | 1013.4 |
| 20260901233035 | 25 | 0 | 0.0 | 0.0 | 0.00 | 0.03 | 0.03 | 91 | 1013.4 |
| 20260901231531 | 26 | 0 | 0.0 | 0.0 | 0.00 | 0.03 | 0.03 | 90 | 1012.9 |
| 20260901230033 | 26 | 0 | 0.0 | 0.0 | 0.00 | 0.03 | 0.03 | 89 | 1013.5 |
| 20260901224531 | 26 | 0 | 0.0 | 0.0 | 0.00 | 0.03 | 0.03 | 89 | 1013.1 |
| 20260901223032 | 27 | 0 | 0.0 | 0.0 | 0.00 | 0.03 | 0.03 | 87 | 1013.1 |
| 20260901221544 | 27 | 0 | 0.0 | 0.0 | 0.00 | 0.03 | 0.03 | 86 | 1013.1 |
| 20260901220031 | 27 | 0 | 0.0 | 0.0 | 0.00 | 0.03 | 0.03 | 86 | 1013.0 |
| 20260901214533 | 28 | 0 | 0.0 | 0.0 | 0.00 | 0.03 | 0.03 | 84 | 1013.4 |
| 20260901213032 | 28 | 0 | 0.0 | 0.0 | 0.00 | 0.03 | 0.03 | 83 | 1013.5 |
| 20260901211533 | 28 | 0 | 0.0 | 0.0 | 0.00 | 0.03 | 0.03 | 83 | 1013.2 |
| 20260901210031 | 29 | 0 | 0.0 | 3.2 | 0.00 | 0.03 | 0.03 | 81 | 1013.2 |
| 20260901204530 | 30 | 0 | 0.0 | 6.4 | 0.00 | 0.03 | 0.03 | 74 | 1013.4 |
| 20260901203031 | 30 | 0 | 0.0 | 0.0 | 0.00 | 0.03 | 0.03 | 75 | 1013.5 |
| 20260901201531 | 29 | 0 | 0.0 | 3.2 | 0.00 | 0.03 | 0.03 | 75 | 1013.5 |
| 20260901200038 | 29 | 0 | 0.0 | 0.0 | 0.00 | 0.03 | 0.03 | 76 | 1013.4 |
| 20260901194532 | 30 | 0 | 0.0 | 6.4 | 0.00 | 0.03 | 0.03 | 74 | 1013.8 |
| 20260901193034 | 30 | 0 | 0.0 | 9.7 | 0.00 | 0.03 | 0.03 | 72 | 1013.8 |
| 20260901191551 | 29 | 0 | 0.0 | 0.0 | 0.00 | 0.03 | 0.03 | 73 | 1013.8 |